Wetterdaten: Woche 22.05.17 - 28.05.17 (KW21)
Datum Zeit Temp. I. Temp. A. Feuchte I. Feuchte A. Luftdruck Regen Wind Richtung Sonnenschein UV Solar Taupunkt Windchill Windben
22.05.2017 00:00 24,5 C 10,2 C 49 % 85 % 1022,9 hPa 0,0 l/m 0,0 km/h (0 Bft) N 0,00 h 0,0 UV-I 0 W/m 7,8 C 10,2 C 0,0 km/h (0 Bft)
22.05.2017 01:00 24,4 C 9,1 C 49 % 89 % 1022,5 hPa 0,0 l/m 0,0 km/h (0 Bft) N 0,00 h 0,0 UV-I 0 W/m 7,3 C 9,1 C 0,0 km/h (0 Bft)
22.05.2017 02:00 24,3 C 8,3 C 50 % 91 % 1022,2 hPa 0,0 l/m 0,0 km/h (0 Bft) N 0,00 h 0,0 UV-I 0 W/m 6,8 C 8,3 C 0,0 km/h (0 Bft)
22.05.2017 03:00 24,2 C 7,5 C 50 % 92 % 1021,8 hPa 0,0 l/m 0,0 km/h (0 Bft) N 0,00 h 0,0 UV-I 0 W/m 6,3 C 7,5 C 0,0 km/h (0 Bft)
22.05.2017 04:00 24,2 C 7,2 C 50 % 93 % 1021,4 hPa 0,0 l/m 0,0 km/h (0 Bft) N 0,00 h 0,0 UV-I 0 W/m 6,2 C 7,2 C 0,0 km/h (0 Bft)
22.05.2017 05:00 24,1 C 7,3 C 50 % 93 % 1021,2 hPa 0,0 l/m 0,0 km/h (0 Bft) N 0,00 h 0,0 UV-I 11 W/m 6,2 C 7,3 C 0,0 km/h (0 Bft)
22.05.2017 06:00 24,1 C 8,3 C 51 % 92 % 1021,2 hPa 0,0 l/m 0,0 km/h (0 Bft) N 0,00 h 0,5 UV-I 43 W/m 7,0 C 8,3 C 0,0 km/h (0 Bft)
22.05.2017 07:00 24,3 C 10,9 C 52 % 86 % 1021,1 hPa 0,0 l/m 0,8 km/h (0 Bft) NO 0,52 h 0,7 UV-I 182 W/m 8,6 C 10,9 C 2,0 km/h (1 Bft)
22.05.2017 08:00 24,2 C 14,6 C 50 % 69 % 1020,7 hPa 0,0 l/m 3,5 km/h (1 Bft) O-NO 1,00 h 1,6 UV-I 455 W/m 9,0 C 14,5 C 7,5 km/h (2 Bft)
22.05.2017 09:00 23,6 C 17,0 C 45 % 60 % 1020,4 hPa 0,0 l/m 5,0 km/h (1 Bft) O-NO 1,00 h 2,5 UV-I 567 W/m 9,3 C 16,7 C 10,3 km/h (2 Bft)
22.05.2017 10:00 23,5 C 18,0 C 44 % 55 % 1020,3 hPa 0,0 l/m 6,2 km/h (2 Bft) O-NO 1,00 h 3,8 UV-I 687 W/m 8,8 C 17,4 C 12,3 km/h (3 Bft)
22.05.2017 11:00 23,5 C 19,3 C 44 % 52 % 1019,9 hPa 0,0 l/m 5,6 km/h (1 Bft) O-NO 1,00 h 5,0 UV-I 827 W/m 9,2 C 18,9 C 11,2 km/h (2 Bft)
22.05.2017 12:00 23,8 C 18,8 C 45 % 52 % 1019,5 hPa 0,0 l/m 3,3 km/h (1 Bft) O-NO 1,00 h 4,1 UV-I 474 W/m 8,8 C 18,7 C 7,0 km/h (2 Bft)
22.05.2017 13:00 24,0 C 19,9 C 46 % 50 % 1019,0 hPa 0,0 l/m 4,8 km/h (1 Bft) O 1,00 h 5,6 UV-I 834 W/m 9,2 C 19,6 C 9,4 km/h (2 Bft)
22.05.2017 14:00 24,1 C 20,1 C 46 % 50 % 1018,5 hPa 0,0 l/m 2,8 km/h (1 Bft) O-NO 1,00 h 4,3 UV-I 556 W/m 9,3 C 20,0 C 6,4 km/h (2 Bft)
22.05.2017 15:00 24,2 C 20,7 C 46 % 50 % 1017,9 hPa 0,0 l/m 2,7 km/h (1 Bft) O-NO 1,00 h 3,7 UV-I 635 W/m 9,8 C 20,6 C 6,7 km/h (2 Bft)
22.05.2017 16:00 24,4 C 20,3 C 46 % 50 % 1017,4 hPa 0,0 l/m 2,5 km/h (1 Bft) O-NO 1,00 h 2,3 UV-I 432 W/m 9,6 C 20,3 C 5,4 km/h (1 Bft)
22.05.2017 17:00 24,5 C 19,5 C 46 % 52 % 1017,0 hPa 0,0 l/m 1,5 km/h (1 Bft) O-NO 0,98 h 1,1 UV-I 180 W/m 9,5 C 19,5 C 3,8 km/h (1 Bft)
22.05.2017 18:00 24,6 C 19,5 C 46 % 50 % 1016,6 hPa 0,0 l/m 0,4 km/h (0 Bft) O 0,00 h 0,9 UV-I 66 W/m 8,9 C 19,5 C 1,3 km/h (1 Bft)
22.05.2017 19:00 24,6 C 18,9 C 46 % 53 % 1016,5 hPa 0,0 l/m 0,9 km/h (0 Bft) O-NO 0,00 h 0,0 UV-I 38 W/m 8,9 C 18,9 C 3,0 km/h (1 Bft)
22.05.2017 20:00 24,6 C 17,8 C 46 % 57 % 1016,4 hPa 0,0 l/m 0,0 km/h (0 Bft) N 0,00 h 0,0 UV-I 13 W/m 9,2 C 17,8 C 0,0 km/h (0 Bft)
22.05.2017 21:00 24,5 C 15,8 C 47 % 65 % 1016,4 hPa 0,0 l/m 0,0 km/h (0 Bft) N 0,00 h 0,0 UV-I 0 W/m 9,2 C 15,8 C 0,0 km/h (0 Bft)
22.05.2017 22:00 24,6 C 13,5 C 48 % 74 % 1016,7 hPa 0,0 l/m 0,0 km/h (0 Bft) N 0,00 h 0,0 UV-I 0 W/m 9,0 C 13,5 C 0,0 km/h (0 Bft)
22.05.2017 23:00 24,6 C 12,0 C 49 % 81 % 1016,8 hPa 0,0 l/m 0,0 km/h (0 Bft) N 0,00 h 0,0 UV-I 0 W/m 8,9 C 12,0 C 0,0 km/h (0 Bft)
23.05.2017 00:00 24,4 C 10,8 C 49 % 84 % 1016,8 hPa 0,0 l/m 0,0 km/h (0 Bft) N 0,00 h 0,0 UV-I 0 W/m 8,3 C 10,8 C 0,0 km/h (0 Bft)
23.05.2017 01:00 24,2 C 10,0 C 49 % 88 % 1016,9 hPa 0,0 l/m 0,0 km/h (0 Bft) N 0,00 h 0,0 UV-I 0 W/m 8,1 C 10,0 C 0,0 km/h (0 Bft)
23.05.2017 02:00 24,2 C 9,5 C 49 % 90 % 1016,6 hPa 0,0 l/m 0,0 km/h (0 Bft) N 0,00 h 0,0 UV-I 0 W/m 8,0 C 9,5 C 0,0 km/h (0 Bft)
23.05.2017 03:00 24,1 C 10,1 C 50 % 89 % 1016,4 hPa 0,0 l/m 0,0 km/h (0 Bft) N 0,00 h 0,0 UV-I 0 W/m 8,4 C 10,1 C 0,0 km/h (0 Bft)
23.05.2017 04:00 24,0 C 9,6 C 50 % 90 % 1016,4 hPa 0,0 l/m 0,0 km/h (0 Bft) N 0,00 h 0,0 UV-I 0 W/m 8,0 C 9,6 C 0,0 km/h (0 Bft)
23.05.2017 05:00 23,9 C 8,8 C 50 % 91 % 1016,5 hPa 0,0 l/m 0,0 km/h (0 Bft) N 0,00 h 0,0 UV-I 18 W/m 7,4 C 8,8 C 0,0 km/h (0 Bft)
23.05.2017 06:00 23,9 C 9,2 C 51 % 91 % 1016,5 hPa 0,0 l/m 0,0 km/h (0 Bft) N 0,00 h 0,0 UV-I 31 W/m 7,8 C 9,2 C 0,0 km/h (0 Bft)
23.05.2017 07:00 24,2 C 11,5 C 51 % 86 % 1016,7 hPa 0,0 l/m 0,0 km/h (0 Bft) N 0,67 h 0,9 UV-I 219 W/m 9,2 C 11,5 C 0,0 km/h (0 Bft)
23.05.2017 08:00 24,6 C 15,1 C 50 % 75 % 1017,0 hPa 0,0 l/m 0,0 km/h (0 Bft) N 1,00 h 1,4 UV-I 414 W/m 10,6 C 15,1 C 0,2 km/h (0 Bft)
23.05.2017 09:00 24,2 C 17,9 C 48 % 65 % 1016,8 hPa 0,0 l/m 0,1 km/h (0 Bft) W 1,00 h 2,4 UV-I 555 W/m 11,1 C 17,9 C 0,2 km/h (0 Bft)
23.05.2017 10:00 23,8 C 19,5 C 47 % 60 % 1016,6 hPa 0,0 l/m 0,9 km/h (0 Bft) W-SW 1,00 h 3,2 UV-I 565 W/m 11,4 C 19,5 C 2,5 km/h (1 Bft)
23.05.2017 11:00 23,8 C 20,7 C 47 % 55 % 1016,8 hPa 0,0 l/m 3,7 km/h (1 Bft) W-SW 1,00 h 4,2 UV-I 775 W/m 11,3 C 20,5 C 6,8 km/h (2 Bft)
23.05.2017 12:00 24,0 C 21,8 C 47 % 50 % 1016,5 hPa 0,0 l/m 3,6 km/h (1 Bft) W-SW 1,00 h 5,0 UV-I 710 W/m 11,0 C 21,6 C 7,3 km/h (2 Bft)
23.05.2017 13:00 24,1 C 22,8 C 48 % 46 % 1016,3 hPa 0,0 l/m 3,6 km/h (1 Bft) W-SW 1,00 h 5,4 UV-I 814 W/m 10,7 C 22,7 C 8,5 km/h (2 Bft)
23.05.2017 14:00 24,2 C 23,2 C 48 % 44 % 1015,9 hPa 0,0 l/m 4,0 km/h (1 Bft) W-NW 1,00 h 4,4 UV-I 630 W/m 10,3 C 23,1 C 7,3 km/h (2 Bft)
23.05.2017 15:00 24,2 C 23,3 C 47 % 41 % 1015,9 hPa 0,0 l/m 6,5 km/h (2 Bft) W-NW 1,00 h 3,3 UV-I 564 W/m 9,3 C 22,8 C 12,4 km/h (3 Bft)
23.05.2017 16:00 24,3 C 22,8 C 46 % 42 % 1016,1 hPa 0,0 l/m 6,6 km/h (2 Bft) W-NW 1,00 h 2,2 UV-I 363 W/m 9,3 C 22,4 C 12,6 km/h (3 Bft)
23.05.2017 17:00 24,3 C 22,5 C 46 % 45 % 1015,8 hPa 0,0 l/m 4,8 km/h (1 Bft) W 1,00 h 1,4 UV-I 272 W/m 9,9 C 22,3 C 8,4 km/h (2 Bft)
23.05.2017 18:00 24,3 C 21,9 C 45 % 46 % 1015,6 hPa 0,0 l/m 4,9 km/h (1 Bft) W 0,63 h 0,7 UV-I 145 W/m 9,9 C 21,7 C 9,7 km/h (2 Bft)
23.05.2017 19:00 24,4 C 21,4 C 46 % 48 % 1015,6 hPa 0,0 l/m 2,6 km/h (1 Bft) W 0,00 h 0,5 UV-I 71 W/m 10,0 C 21,3 C 4,7 km/h (1 Bft)
23.05.2017 20:00 24,3 C 20,4 C 47 % 53 % 1015,6 hPa 0,0 l/m 0,5 km/h (0 Bft) W-SW 0,00 h 0,0 UV-I 13 W/m 10,4 C 20,4 C 2,0 km/h (1 Bft)
23.05.2017 21:00 24,4 C 19,4 C 47 % 57 % 1015,8 hPa 0,0 l/m 0,2 km/h (0 Bft) SW 0,00 h 0,0 UV-I 0 W/m 10,7 C 19,4 C 0,8 km/h (0 Bft)
23.05.2017 22:00 24,5 C 18,2 C 48 % 64 % 1016,3 hPa 0,0 l/m 0,0 km/h (0 Bft) N 0,00 h 0,0 UV-I 0 W/m 11,2 C 18,2 C 0,0 km/h (0 Bft)
23.05.2017 23:00 24,6 C 17,3 C 50 % 68 % 1016,5 hPa 0,0 l/m 0,1 km/h (0 Bft) N-NO 0,00 h 0,0 UV-I 0 W/m 11,3 C 17,3 C 0,2 km/h (0 Bft)
24.05.2017 00:00 24,5 C 17,0 C 49 % 69 % 1016,7 hPa 0,0 l/m 1,9 km/h (1 Bft) N 0,00 h 0,0 UV-I 0 W/m 11,2 C 17,0 C 2,7 km/h (1 Bft)
24.05.2017 01:00 24,4 C 16,8 C 50 % 68 % 1016,7 hPa 0,0 l/m 3,2 km/h (1 Bft) NW 0,00 h 0,0 UV-I 0 W/m 10,8 C 16,7 C 6,4 km/h (2 Bft)
24.05.2017 02:00 24,3 C 15,5 C 50 % 75 % 1017,0 hPa 0,0 l/m 1,4 km/h (1 Bft) N 0,00 h 0,0 UV-I 0 W/m 11,0 C 15,5 C 3,0 km/h (1 Bft)
24.05.2017 03:00 24,2 C 14,9 C 50 % 79 % 1017,1 hPa 0,0 l/m 3,0 km/h (1 Bft) N 0,00 h 0,0 UV-I 0 W/m 11,3 C 14,5 C 5,0 km/h (1 Bft)
24.05.2017 04:00 24,2 C 13,6 C 50 % 76 % 1017,5 hPa 0,0 l/m 6,6 km/h (2 Bft) N 0,00 h 0,0 UV-I 0 W/m 9,5 C 12,3 C 10,9 km/h (2 Bft)
24.05.2017 05:00 24,3 C 12,1 C 50 % 72 % 1018,0 hPa 0,0 l/m 0,3 km/h (0 Bft) N-NO 0,00 h 0,0 UV-I 10 W/m 7,2 C 12,1 C 0,6 km/h (0 Bft)
24.05.2017 06:00 24,2 C 11,3 C 51 % 70 % 1018,6 hPa 0,0 l/m 1,9 km/h (1 Bft) NW 0,00 h 0,5 UV-I 50 W/m 6,0 C 10,9 C 3,2 km/h (1 Bft)
24.05.2017 07:00 24,3 C 12,0 C 50 % 67 % 1019,0 hPa 0,0 l/m 10,2 km/h (2 Bft) NW 0,62 h 0,8 UV-I 195 W/m 6,0 C 9,4 C 16,0 km/h (3 Bft)
24.05.2017 08:00 24,3 C 13,2 C 49 % 60 % 1019,5 hPa 0,0 l/m 11,1 km/h (2 Bft) NW 1,00 h 1,6 UV-I 422 W/m 5,6 C 10,6 C 19,5 km/h (3 Bft)
24.05.2017 09:00 24,4 C 14,4 C 48 % 57 % 1019,5 hPa 0,0 l/m 8,9 km/h (2 Bft) W-NW 1,00 h 2,4 UV-I 505 W/m 5,9 C 12,7 C 15,6 km/h (3 Bft)
24.05.2017 10:00 24,3 C 15,5 C 48 % 55 % 1019,5 hPa 0,0 l/m 8,1 km/h (2 Bft) NW 1,00 h 3,7 UV-I 632 W/m 6,4 C 14,2 C 14,8 km/h (3 Bft)
24.05.2017 11:00 24,1 C 16,4 C 44 % 51 % 1019,3 hPa 0,0 l/m 8,2 km/h (2 Bft) NW 1,00 h 4,1 UV-I 584 W/m 6,4 C 15,0 C 14,9 km/h (3 Bft)
24.05.2017 12:00 24,2 C 17,2 C 44 % 49 % 1019,3 hPa 0,0 l/m 8,2 km/h (2 Bft) W-NW 1,00 h 4,4 UV-I 604 W/m 6,5 C 15,9 C 14,3 km/h (3 Bft)
24.05.2017 13:00 24,2 C 16,7 C 44 % 52 % 1019,3 hPa 0,0 l/m 8,5 km/h (2 Bft) W 0,90 h 2,8 UV-I 356 W/m 6,6 C 15,5 C 15,6 km/h (3 Bft)
24.05.2017 14:00 24,2 C 15,3 C 44 % 57 % 1019,2 hPa 0,0 l/m 3,2 km/h (1 Bft) W 0,00 h 0,9 UV-I 99 W/m 6,9 C 15,2 C 7,4 km/h (2 Bft)
24.05.2017 15:00 24,3 C 15,6 C 44 % 57 % 1019,1 hPa 0,0 l/m 5,6 km/h (1 Bft) W-NW 0,28 h 1,2 UV-I 158 W/m 7,1 C 15,0 C 12,0 km/h (2 Bft)
24.05.2017 16:00 24,5 C 16,0 C 45 % 58 % 1019,0 hPa 0,0 l/m 3,1 km/h (1 Bft) NW 0,17 h 1,0 UV-I 121 W/m 7,8 C 15,7 C 6,4 km/h (2 Bft)
24.05.2017 17:00 24,6 C 15,9 C 46 % 58 % 1019,0 hPa 0,0 l/m 4,5 km/h (1 Bft) NW 0,38 h 0,8 UV-I 138 W/m 7,6 C 15,5 C 8,4 km/h (2 Bft)
24.05.2017 18:00 24,8 C 15,3 C 47 % 59 % 1019,0 hPa 0,0 l/m 8,2 km/h (2 Bft) N 0,00 h 0,5 UV-I 62 W/m 7,3 C 13,9 C 12,4 km/h (3 Bft)
24.05.2017 19:00 24,9 C 14,0 C 47 % 67 % 1019,5 hPa 0,0 l/m 4,5 km/h (1 Bft) N 0,00 h 0,0 UV-I 28 W/m 8,1 C 13,3 C 4,2 km/h (1 Bft)
24.05.2017 20:00 24,8 C 12,3 C 47 % 80 % 1020,3 hPa 0,2 l/m 3,4 km/h (1 Bft) N 0,00 h 0,0 UV-I 11 W/m 9,0 C 11,8 C 6,5 km/h (2 Bft)
24.05.2017 21:00 24,8 C 11,0 C 47 % 86 % 1021,1 hPa 0,0 l/m 0,3 km/h (0 Bft) N 0,00 h 0,0 UV-I 0 W/m 8,6 C 10,9 C 0,5 km/h (0 Bft)
24.05.2017 22:00 24,8 C 10,8 C 48 % 86 % 1021,3 hPa 0,0 l/m 0,0 km/h (0 Bft) N 0,00 h 0,0 UV-I 0 W/m 8,6 C 10,8 C 0,0 km/h (0 Bft)
24.05.2017 23:00 25,0 C 10,1 C 49 % 89 % 1021,5 hPa 0,0 l/m 0,0 km/h (0 Bft) N 0,00 h 0,0 UV-I 0 W/m 8,3 C 10,1 C 0,0 km/h (0 Bft)
25.05.2017 00:00 24,8 C 9,9 C 49 % 91 % 1021,5 hPa 0,0 l/m 0,0 km/h (0 Bft) N 0,00 h 0,0 UV-I 0 W/m 8,5 C 9,9 C 0,0 km/h (0 Bft)
25.05.2017 01:00 24,7 C 9,0 C 49 % 92 % 1021,4 hPa 0,0 l/m 0,0 km/h (0 Bft) N 0,00 h 0,0 UV-I 0 W/m 7,7 C 9,0 C 0,0 km/h (0 Bft)
25.05.2017 02:00 24,4 C 7,9 C 49 % 93 % 1021,4 hPa 0,0 l/m 0,0 km/h (0 Bft) N 0,00 h 0,0 UV-I 0 W/m 6,8 C 7,9 C 0,0 km/h (0 Bft)
25.05.2017 03:00 24,4 C 6,9 C 49 % 94 % 1021,6 hPa 0,0 l/m 0,0 km/h (0 Bft) N 0,00 h 0,0 UV-I 0 W/m 6,0 C 6,9 C 0,0 km/h (0 Bft)
25.05.2017 04:00 24,3 C 6,9 C 50 % 95 % 1021,6 hPa 0,0 l/m 0,0 km/h (0 Bft) N 0,00 h 0,0 UV-I 0 W/m 6,2 C 6,9 C 0,0 km/h (0 Bft)
25.05.2017 05:00 24,1 C 7,4 C 50 % 95 % 1021,8 hPa 0,0 l/m 0,0 km/h (0 Bft) N 0,00 h 0,0 UV-I 11 W/m 6,6 C 7,4 C 0,0 km/h (0 Bft)
25.05.2017 06:00 24,2 C 7,9 C 50 % 94 % 1022,1 hPa 0,0 l/m 0,0 km/h (0 Bft) N 0,00 h 0,0 UV-I 30 W/m 6,9 C 7,9 C 0,0 km/h (0 Bft)
25.05.2017 07:00 24,4 C 8,8 C 50 % 93 % 1022,3 hPa 0,0 l/m 0,0 km/h (0 Bft) N 0,07 h 0,7 UV-I 78 W/m 7,7 C 8,8 C 0,0 km/h (0 Bft)
25.05.2017 08:00 24,5 C 10,1 C 50 % 91 % 1022,4 hPa 0,0 l/m 0,0 km/h (0 Bft) N 0,37 h 0,7 UV-I 126 W/m 8,7 C 10,1 C 0,0 km/h (0 Bft)
25.05.2017 09:00 24,9 C 12,0 C 50 % 83 % 1022,6 hPa 0,0 l/m 0,0 km/h (0 Bft) N 1,00 h 1,7 UV-I 263 W/m 9,2 C 12,0 C 0,0 km/h (0 Bft)
25.05.2017 10:00 25,0 C 13,6 C 51 % 75 % 1022,4 hPa 0,0 l/m 1,5 km/h (1 Bft) N 1,00 h 2,6 UV-I 362 W/m 9,3 C 13,6 C 1,4 km/h (1 Bft)
25.05.2017 11:00 24,3 C 15,4 C 46 % 68 % 1022,1 hPa 0,0 l/m 2,2 km/h (1 Bft) W-SW 1,00 h 4,4 UV-I 523 W/m 9,6 C 15,4 C 2,9 km/h (1 Bft)
25.05.2017 12:00 24,3 C 16,4 C 47 % 62 % 1021,8 hPa 0,0 l/m 3,0 km/h (1 Bft) N 1,00 h 3,8 UV-I 449 W/m 9,1 C 16,1 C 5,4 km/h (1 Bft)
25.05.2017 13:00 24,5 C 17,5 C 48 % 58 % 1021,5 hPa 0,0 l/m 3,6 km/h (1 Bft) NW 1,00 h 4,4 UV-I 468 W/m 9,1 C 17,4 C 7,5 km/h (2 Bft)
25.05.2017 14:00 24,8 C 17,5 C 48 % 57 % 1021,4 hPa 0,0 l/m 3,0 km/h (1 Bft) W-NW 1,00 h 3,7 UV-I 284 W/m 8,9 C 17,4 C 6,6 km/h (2 Bft)
25.05.2017 15:00 24,6 C 18,5 C 45 % 56 % 1021,1 hPa 0,0 l/m 3,9 km/h (1 Bft) W-NW 1,00 h 2,4 UV-I 236 W/m 9,6 C 18,4 C 8,2 km/h (2 Bft)
25.05.2017 16:00 24,1 C 18,7 C 43 % 56 % 1020,8 hPa 0,0 l/m 2,3 km/h (1 Bft) N 1,00 h 2,4 UV-I 236 W/m 9,7 C 18,7 C 5,6 km/h (1 Bft)
25.05.2017 17:00 23,9 C 18,6 C 42 % 53 % 1020,4 hPa 0,0 l/m 3,4 km/h (1 Bft) NW 0,68 h 1,8 UV-I 336 W/m 8,9 C 18,5 C 7,2 km/h (2 Bft)
25.05.2017 18:00 24,1 C 18,3 C 44 % 52 % 1020,2 hPa 0,0 l/m 4,5 km/h (1 Bft) N 0,00 h 0,9 UV-I 87 W/m 8,4 C 18,1 C 9,1 km/h (2 Bft)
25.05.2017 19:00 24,4 C 17,4 C 45 % 55 % 1020,0 hPa 0,0 l/m 3,2 km/h (1 Bft) N 0,00 h 0,6 UV-I 83 W/m 8,3 C 17,4 C 5,4 km/h (1 Bft)
25.05.2017 20:00 24,6 C 16,3 C 46 % 60 % 1020,2 hPa 0,0 l/m 2,0 km/h (1 Bft) N 0,00 h 0,0 UV-I 27 W/m 8,4 C 16,2 C 3,6 km/h (1 Bft)
25.05.2017 21:00 25,1 C 14,5 C 46 % 67 % 1020,6 hPa 0,0 l/m 0,0 km/h (0 Bft) N 0,00 h 0,0 UV-I 8 W/m 8,4 C 14,5 C 0,0 km/h (0 Bft)
25.05.2017 22:00 25,0 C 12,6 C 47 % 76 % 1021,0 hPa 0,0 l/m 0,0 km/h (0 Bft) N 0,00 h 0,0 UV-I 0 W/m 8,4 C 12,6 C 0,0 km/h (0 Bft)
25.05.2017 23:00 24,7 C 10,9 C 47 % 82 % 1021,3 hPa 0,0 l/m 0,0 km/h (0 Bft) N 0,00 h 0,0 UV-I 0 W/m 8,0 C 10,9 C 0,0 km/h (0 Bft)
26.05.2017 00:00 24,5 C 9,6 C 48 % 88 % 1021,5 hPa 0,0 l/m 0,0 km/h (0 Bft) N 0,00 h 0,0 UV-I 0 W/m 7,7 C 9,6 C 0,0 km/h (0 Bft)
26.05.2017 01:00 24,3 C 8,9 C 48 % 90 % 1021,6 hPa 0,0 l/m 0,0 km/h (0 Bft) N 0,00 h 0,0 UV-I 0 W/m 7,3 C 8,9 C 0,0 km/h (0 Bft)
26.05.2017 02:00 24,3 C 7,9 C 48 % 91 % 1021,5 hPa 0,0 l/m 0,0 km/h (0 Bft) N 0,00 h 0,0 UV-I 0 W/m 6,6 C 7,9 C 0,0 km/h (0 Bft)
26.05.2017 03:00 24,2 C 7,1 C 49 % 92 % 1021,5 hPa 0,0 l/m 0,0 km/h (0 Bft) N 0,00 h 0,0 UV-I 0 W/m 6,0 C 7,1 C 0,0 km/h (0 Bft)
26.05.2017 04:00 24,5 C 6,4 C 49 % 93 % 1021,5 hPa 0,0 l/m 0,0 km/h (0 Bft) N 0,00 h 0,0 UV-I 0 W/m 5,4 C 6,4 C 0,0 km/h (0 Bft)
26.05.2017 05:00 24,3 C 6,0 C 50 % 94 % 1021,7 hPa 0,0 l/m 0,0 km/h (0 Bft) N 0,00 h 0,0 UV-I 12 W/m 5,1 C 6,0 C 0,0 km/h (0 Bft)
26.05.2017 06:00 24,0 C 6,7 C 50 % 94 % 1021,8 hPa 0,0 l/m 0,0 km/h (0 Bft) N 0,00 h 0,0 UV-I 26 W/m 5,8 C 6,7 C 0,0 km/h (0 Bft)
26.05.2017 07:00 24,4 C 9,4 C 50 % 90 % 1021,9 hPa 0,0 l/m 0,0 km/h (0 Bft) N 0,62 h 0,9 UV-I 202 W/m 7,8 C 9,4 C 0,0 km/h (0 Bft)
26.05.2017 08:00 24,3 C 14,0 C 50 % 80 % 1021,9 hPa 0,0 l/m 0,6 km/h (0 Bft) N-NO 0,97 h 1,7 UV-I 451 W/m 10,7 C 14,0 C 1,2 km/h (1 Bft)
26.05.2017 09:00 23,7 C 15,6 C 48 % 75 % 1021,9 hPa 0,0 l/m 2,8 km/h (1 Bft) NW 0,65 h 2,5 UV-I 404 W/m 11,1 C 15,6 C 4,1 km/h (1 Bft)
26.05.2017 10:00 23,4 C 18,0 C 48 % 64 % 1021,7 hPa 0,0 l/m 3,6 km/h (1 Bft) W-NW 1,00 h 4,5 UV-I 762 W/m 11,1 C 17,9 C 6,8 km/h (2 Bft)
26.05.2017 11:00 23,6 C 20,1 C 46 % 56 % 1021,5 hPa 0,0 l/m 1,8 km/h (1 Bft) N 1,00 h 5,8 UV-I 848 W/m 11,0 C 20,1 C 3,9 km/h (1 Bft)
26.05.2017 12:00 23,7 C 21,1 C 46 % 54 % 1021,1 hPa 0,0 l/m 1,2 km/h (1 Bft) W 1,00 h 6,5 UV-I 876 W/m 11,4 C 21,1 C 2,2 km/h (1 Bft)
26.05.2017 13:00 24,0 C 22,6 C 46 % 51 % 1020,6 hPa 0,0 l/m 1,7 km/h (1 Bft) N 1,00 h 6,5 UV-I 903 W/m 11,8 C 22,5 C 3,8 km/h (1 Bft)
26.05.2017 14:00 24,3 C 23,2 C 46 % 47 % 1020,1 hPa 0,0 l/m 2,9 km/h (1 Bft) N 1,00 h 5,5 UV-I 713 W/m 11,3 C 23,1 C 5,5 km/h (1 Bft)
26.05.2017 15:00 24,3 C 22,8 C 46 % 50 % 1019,7 hPa 0,0 l/m 2,4 km/h (1 Bft) N-NO 1,00 h 3,4 UV-I 487 W/m 11,6 C 22,7 C 5,4 km/h (1 Bft)
26.05.2017 16:00 24,2 C 22,7 C 46 % 49 % 1019,3 hPa 0,0 l/m 4,7 km/h (1 Bft) N 0,92 h 2,7 UV-I 447 W/m 11,4 C 22,5 C 9,0 km/h (2 Bft)
26.05.2017 17:00 24,2 C 23,3 C 45 % 43 % 1018,9 hPa 0,0 l/m 6,1 km/h (2 Bft) N-NW 0,87 h 2,2 UV-I 419 W/m 10,1 C 23,0 C 11,6 km/h (2 Bft)
26.05.2017 18:00 24,2 C 22,1 C 46 % 48 % 1018,9 hPa 0,0 l/m 5,0 km/h (1 Bft) N 0,00 h 0,0 UV-I 43 W/m 10,6 C 21,9 C 9,5 km/h (2 Bft)
26.05.2017 19:00 24,3 C 20,6 C 46 % 55 % 1019,1 hPa 0,0 l/m 5,1 km/h (1 Bft) N 0,00 h 0,0 UV-I 28 W/m 11,1 C 20,4 C 9,6 km/h (2 Bft)
26.05.2017 20:00 24,2 C 19,1 C 46 % 60 % 1019,2 hPa 0,0 l/m 0,8 km/h (0 Bft) N 0,00 h 0,0 UV-I 13 W/m 11,1 C 19,1 C 1,8 km/h (1 Bft)
26.05.2017 21:00 24,7 C 17,4 C 47 % 66 % 1019,7 hPa 0,0 l/m 0,4 km/h (0 Bft) N 0,00 h 0,0 UV-I 0 W/m 11,0 C 17,4 C 0,5 km/h (0 Bft)
26.05.2017 22:00 24,7 C 15,9 C 48 % 72 % 1020,2 hPa 0,0 l/m 0,0 km/h (0 Bft) N 0,00 h 0,0 UV-I 0 W/m 10,8 C 15,9 C 0,0 km/h (0 Bft)
26.05.2017 23:00 24,5 C 13,8 C 49 % 81 % 1020,6 hPa 0,0 l/m 0,0 km/h (0 Bft) N 0,00 h 0,0 UV-I 0 W/m 10,5 C 13,8 C 0,0 km/h (0 Bft)
27.05.2017 00:00 24,4 C 12,4 C 49 % 86 % 1020,8 hPa 0,0 l/m 0,0 km/h (0 Bft) N 0,00 h 0,0 UV-I 0 W/m 10,1 C 12,4 C 0,0 km/h (0 Bft)
27.05.2017 01:00 24,2 C 11,2 C 50 % 90 % 1020,8 hPa 0,0 l/m 0,0 km/h (0 Bft) N 0,00 h 0,0 UV-I 0 W/m 9,6 C 11,2 C 0,0 km/h (0 Bft)
27.05.2017 02:00 24,2 C 10,5 C 50 % 91 % 1020,9 hPa 0,0 l/m 0,0 km/h (0 Bft) N 0,00 h 0,0 UV-I 0 W/m 9,1 C 10,5 C 0,0 km/h (0 Bft)
27.05.2017 03:00 24,2 C 9,6 C 51 % 92 % 1021,0 hPa 0,0 l/m 0,0 km/h (0 Bft) N 0,00 h 0,0 UV-I 0 W/m 8,4 C 9,6 C 0,0 km/h (0 Bft)
27.05.2017 04:00 24,3 C 9,0 C 51 % 93 % 1021,0 hPa 0,0 l/m 0,0 km/h (0 Bft) N 0,00 h 0,0 UV-I 0 W/m 7,9 C 9,0 C 0,0 km/h (0 Bft)
27.05.2017 05:00 24,4 C 8,6 C 51 % 94 % 1021,1 hPa 0,0 l/m 0,0 km/h (0 Bft) N 0,00 h 0,0 UV-I 10 W/m 7,7 C 8,6 C 0,0 km/h (0 Bft)
27.05.2017 06:00 24,0 C 9,4 C 52 % 93 % 1021,3 hPa 0,0 l/m 0,0 km/h (0 Bft) N 0,00 h 0,0 UV-I 21 W/m 8,3 C 9,4 C 0,0 km/h (0 Bft)
27.05.2017 07:00 24,2 C 14,0 C 52 % 85 % 1021,5 hPa 0,0 l/m 0,5 km/h (0 Bft) N 0,67 h 0,9 UV-I 229 W/m 11,4 C 14,0 C 1,3 km/h (1 Bft)
27.05.2017 08:00 23,8 C 17,8 C 51 % 73 % 1021,6 hPa 0,0 l/m 2,0 km/h (1 Bft) SO 1,00 h 1,7 UV-I 466 W/m 13,0 C 17,8 C 3,4 km/h (1 Bft)
27.05.2017 09:00 23,3 C 19,6 C 50 % 63 % 1021,7 hPa 0,0 l/m 2,5 km/h (1 Bft) O-SO 1,00 h 2,8 UV-I 620 W/m 12,3 C 19,5 C 6,4 km/h (2 Bft)
27.05.2017 10:00 23,4 C 20,9 C 48 % 55 % 1021,5 hPa 0,0 l/m 3,4 km/h (1 Bft) O-SO 1,00 h 4,6 UV-I 761 W/m 11,4 C 20,8 C 7,4 km/h (2 Bft)
27.05.2017 11:00 25,4 C 22,1 C 45 % 54 % 1021,3 hPa 0,0 l/m 3,4 km/h (1 Bft) SO 1,00 h 5,9 UV-I 840 W/m 12,4 C 22,0 C 7,1 km/h (2 Bft)
27.05.2017 12:00 24,4 C 23,0 C 48 % 49 % 1021,1 hPa 0,0 l/m 4,8 km/h (1 Bft) SO 1,00 h 6,7 UV-I 881 W/m 11,7 C 22,8 C 9,3 km/h (2 Bft)
27.05.2017 13:00 24,3 C 24,1 C 49 % 43 % 1020,9 hPa 0,0 l/m 4,4 km/h (1 Bft) O-SO 1,00 h 6,9 UV-I 883 W/m 10,9 C 24,0 C 8,9 km/h (2 Bft)
27.05.2017 14:00 24,7 C 24,4 C 49 % 39 % 1020,4 hPa 0,0 l/m 6,2 km/h (2 Bft) SO 1,00 h 6,3 UV-I 841 W/m 9,7 C 24,1 C 11,6 km/h (2 Bft)
27.05.2017 15:00 24,8 C 24,9 C 47 % 39 % 1019,9 hPa 0,0 l/m 3,8 km/h (1 Bft) SO 1,00 h 5,0 UV-I 751 W/m 9,8 C 24,8 C 8,6 km/h (2 Bft)
27.05.2017 16:00 25,0 C 24,8 C 45 % 39 % 1019,7 hPa 0,0 l/m 3,8 km/h (1 Bft) O-SO 1,00 h 4,0 UV-I 673 W/m 9,8 C 24,6 C 7,3 km/h (2 Bft)
27.05.2017 17:00 24,9 C 24,6 C 45 % 39 % 1019,4 hPa 0,0 l/m 3,6 km/h (1 Bft) SO 0,90 h 3,5 UV-I 559 W/m 9,9 C 24,5 C 7,4 km/h (2 Bft)
27.05.2017 18:00 24,8 C 23,9 C 43 % 41 % 1019,3 hPa 0,0 l/m 2,0 km/h (1 Bft) O-SO 0,00 h 0,0 UV-I 40 W/m 9,9 C 23,9 C 5,8 km/h (2 Bft)
27.05.2017 19:00 24,7 C 23,3 C 45 % 43 % 1019,3 hPa 0,0 l/m 1,9 km/h (1 Bft) O-SO 0,00 h 0,0 UV-I 26 W/m 10,2 C 23,3 C 4,8 km/h (1 Bft)
27.05.2017 20:00 24,7 C 22,4 C 45 % 46 % 1019,6 hPa 0,0 l/m 0,2 km/h (0 Bft) O-SO 0,00 h 0,0 UV-I 13 W/m 10,3 C 22,4 C 0,9 km/h (0 Bft)
27.05.2017 21:00 24,7 C 19,8 C 46 % 57 % 1020,0 hPa 0,0 l/m 0,1 km/h (0 Bft) O-NO 0,00 h 0,0 UV-I 5 W/m 11,0 C 19,8 C 0,5 km/h (0 Bft)
27.05.2017 22:00 24,7 C 17,3 C 47 % 68 % 1020,5 hPa 0,0 l/m 0,1 km/h (0 Bft) O-NO 0,00 h 0,0 UV-I 0 W/m 11,3 C 17,3 C 0,5 km/h (0 Bft)
27.05.2017 23:00 24,6 C 16,6 C 47 % 67 % 1020,9 hPa 0,0 l/m 0,5 km/h (0 Bft) O-NO 0,00 h 0,0 UV-I 0 W/m 10,4 C 16,6 C 1,5 km/h (1 Bft)
28.05.2017 00:00 24,7 C 16,5 C 48 % 64 % 1021,0 hPa 0,0 l/m 1,7 km/h (1 Bft) NO 0,00 h 0,0 UV-I 0 W/m 9,8 C 16,5 C 4,7 km/h (1 Bft)
28.05.2017 01:00 24,6 C 15,9 C 48 % 66 % 1020,8 hPa 0,0 l/m 3,1 km/h (1 Bft) O-NO 0,00 h 0,0 UV-I 0 W/m 9,5 C 15,9 C 7,1 km/h (2 Bft)
28.05.2017 02:00 24,4 C 14,1 C 48 % 73 % 1020,6 hPa 0,0 l/m 0,1 km/h (0 Bft) NO 0,00 h 0,0 UV-I 0 W/m 9,4 C 14,1 C 0,5 km/h (0 Bft)
28.05.2017 03:00 24,3 C 12,6 C 48 % 80 % 1020,6 hPa 0,0 l/m 0,0 km/h (0 Bft) N 0,00 h 0,0 UV-I 0 W/m 9,3 C 12,6 C 0,0 km/h (0 Bft)
28.05.2017 04:00 24,3 C 11,4 C 49 % 85 % 1020,4 hPa 0,0 l/m 0,0 km/h (0 Bft) N 0,00 h 0,0 UV-I 0 W/m 9,0 C 11,4 C 0,0 km/h (0 Bft)
28.05.2017 05:00 24,2 C 10,6 C 49 % 88 % 1020,7 hPa 0,0 l/m 0,0 km/h (0 Bft) N 0,00 h 0,0 UV-I 10 W/m 8,7 C 10,6 C 0,1 km/h (0 Bft)
28.05.2017 06:00 24,2 C 11,8 C 50 % 85 % 1020,9 hPa 0,0 l/m 0,7 km/h (0 Bft) O-NO 0,00 h 0,0 UV-I 22 W/m 9,2 C 11,8 C 2,4 km/h (1 Bft)
28.05.2017 07:00 24,4 C 16,0 C 49 % 70 % 1020,8 hPa 0,0 l/m 0,7 km/h (0 Bft) O-NO 0,57 h 1,1 UV-I 215 W/m 10,6 C 16,0 C 2,5 km/h (1 Bft)
28.05.2017 08:00 24,3 C 19,2 C 49 % 63 % 1020,9 hPa 0,0 l/m 0,6 km/h (0 Bft) NO 1,00 h 1,8 UV-I 477 W/m 11,9 C 19,2 C 1,5 km/h (1 Bft)
28.05.2017 09:00 24,4 C 21,6 C 49 % 58 % 1020,7 hPa 0,0 l/m 0,2 km/h (0 Bft) O-SO 1,00 h 2,9 UV-I 630 W/m 12,8 C 21,6 C 0,6 km/h (0 Bft)
28.05.2017 10:00 24,5 C 23,8 C 49 % 51 % 1020,4 hPa 0,0 l/m 0,6 km/h (0 Bft) O-SO 1,00 h 4,6 UV-I 748 W/m 13,0 C 23,8 C 2,0 km/h (1 Bft)
28.05.2017 11:00 24,4 C 25,2 C 49 % 47 % 1019,9 hPa 0,0 l/m 2,1 km/h (1 Bft) S-SO 1,00 h 6,1 UV-I 838 W/m 13,1 C 25,2 C 4,7 km/h (1 Bft)
28.05.2017 12:00 24,4 C 26,1 C 49 % 45 % 1019,5 hPa 0,0 l/m 3,9 km/h (1 Bft) SO 1,00 h 6,9 UV-I 881 W/m 13,1 C 26,0 C 8,1 km/h (2 Bft)
28.05.2017 13:00 24,5 C 26,6 C 50 % 42 % 1019,1 hPa 0,0 l/m 5,3 km/h (1 Bft) O-SO 1,00 h 7,1 UV-I 879 W/m 12,8 C 26,5 C 10,2 km/h (2 Bft)
28.05.2017 14:00 24,7 C 27,0 C 51 % 40 % 1018,6 hPa 0,0 l/m 3,7 km/h (1 Bft) O-SO 1,00 h 6,0 UV-I 779 W/m 12,3 C 26,9 C 8,1 km/h (2 Bft)
28.05.2017 15:00 24,9 C 27,2 C 51 % 39 % 1018,1 hPa 0,0 l/m 3,2 km/h (1 Bft) O-SO 1,00 h 4,5 UV-I 655 W/m 12,2 C 27,2 C 6,8 km/h (2 Bft)
28.05.2017 16:00 25,5 C 27,9 C 47 % 36 % 1017,8 hPa 0,0 l/m 2,1 km/h (1 Bft) SO 1,00 h 3,6 UV-I 631 W/m 11,5 C 27,9 C 4,6 km/h (1 Bft)
28.05.2017 17:00 25,8 C 27,7 C 44 % 36 % 1017,3 hPa 0,0 l/m 1,7 km/h (1 Bft) W 0,88 h 2,2 UV-I 425 W/m 11,1 C 27,7 C 4,2 km/h (1 Bft)
28.05.2017 18:00 25,6 C 26,8 C 46 % 35 % 1016,8 hPa 0,0 l/m 1,1 km/h (1 Bft) S 0,00 h 0,0 UV-I 42 W/m 10,2 C 26,8 C 3,0 km/h (1 Bft)
28.05.2017 19:00 25,4 C 26,2 C 47 % 35 % 1016,7 hPa 0,0 l/m 0,5 km/h (0 Bft) S-SW 0,00 h 0,0 UV-I 26 W/m 9,4 C 26,2 C 1,5 km/h (1 Bft)
28.05.2017 20:00 25,4 C 24,5 C 47 % 40 % 1016,7 hPa 0,0 l/m 1,3 km/h (1 Bft) SO 0,00 h 0,0 UV-I 13 W/m 10,0 C 24,5 C 2,3 km/h (1 Bft)
28.05.2017 21:00 25,6 C 21,6 C 48 % 49 % 1017,0 hPa 0,0 l/m 0,0 km/h (0 Bft) N 0,00 h 0,0 UV-I 0 W/m 10,4 C 21,6 C 0,0 km/h (0 Bft)
28.05.2017 22:00 25,5 C 20,0 C 48 % 54 % 1017,2 hPa 0,0 l/m 0,0 km/h (0 Bft) N 0,00 h 0,0 UV-I 0 W/m 10,4 C 20,0 C 0,3 km/h (0 Bft)
28.05.2017 23:00 25,2 C 17,2 C 48 % 69 % 1017,0 hPa 0,0 l/m 0,0 km/h (0 Bft) N 0,00 h 0,0 UV-I 0 W/m 11,3 C 17,2 C 0,0 km/h (0 Bft)
Min-Datum _ 26.05.17 22.05.17 24.05.17 28.05.17 23.05.17 - 22.05.17 - - - - 24.05.17 26.05.17 22.05.17
_ Min-Zeit 09:57 07:08 11:21 19:16 18:32 - 00:00 - - - - 08:43 05:35 00:00
Minimum _ 23,3 C 0,0 C 42 % 32 % 1015,5 hPa - 0,0 km/h (0 Bft) - - - - 4,7 C 5,8 C 0,0 km/h (0 Bft)
Max-Datum _ 27.05.17 28.05.17 22.05.17 25.05.17 22.05.17 24.05.17 24.05.17 - 23.05.17 25.05.17 25.05.17 28.05.17 28.05.17 24.05.17
_ Max-Zeit 11:44 16:28 07:28 03:25 00:00 20:19 08:29 - 08:24 12:49 12:52 14:39 16:30 08:22
Maximum _ 26,1 C 28,3 C 52 % 95 % 1023,0 hPa 0,2 l/m 20,9 km/h
NW (4 Bft)
- 0,10 h 7,8 UV-I 1201 W/m 15,4 C 28,3 C 32,2 km/h
NW (5 Bft)
Durchschnitt _ 24,4 C 16,2 C 48 % 67 % 1019,5 hPa #0,2 l/m 2,0 km/h (1 Bft) N #69:18 h 3,1 UV-I 362 W/m 9,3 C 16,1 C 4,0 km/h (1 Bft)